createdAt,value
2022-11-22T00:00:34.514Z,97.00
2022-11-22T00:05:36.654Z,92.40
2022-11-22T00:10:38.470Z,96.00
2022-11-22T00:15:40.268Z,96.70
2022-11-22T00:20:42.002Z,96.40
2022-11-22T00:30:46.785Z,100.90
2022-11-22T00:35:48.547Z,114.20
2022-11-22T00:40:50.356Z,116.70
2022-11-22T00:45:52.143Z,128.80
2022-11-22T00:50:54.181Z,172.20
2022-11-22T00:55:55.949Z,165.50
2022-11-22T01:00:57.693Z,112.30
2022-11-22T01:05:59.553Z,103.00
2022-11-22T01:11:01.725Z,76.80
2022-11-22T01:16:06.889Z,80.00
2022-11-22T01:21:08.914Z,72.10
2022-11-22T01:26:12.538Z,69.70
2022-11-22T01:31:14.283Z,69.60
2022-11-22T01:36:16.125Z,76.10
2022-11-22T01:41:18.056Z,80.40
2022-11-22T01:46:39.550Z,78.80
2022-11-22T01:51:44.399Z,152.60
2022-11-22T01:56:50.956Z,84.90
2022-11-22T02:01:54.116Z,66.10
2022-11-22T02:07:07.087Z,64.90
2022-11-22T02:12:11.170Z,66.20
2022-11-22T02:17:13.224Z,63.60
2022-11-22T02:22:36.551Z,55.10
2022-11-22T02:27:38.599Z,56.40
2022-11-22T02:32:40.365Z,54.50
2022-11-22T02:37:42.718Z,57.30
2022-11-22T02:42:49.301Z,56.20
2022-11-22T02:47:51.176Z,63.50
2022-11-22T02:52:52.944Z,53.70
2022-11-22T02:57:55.046Z,55.60
2022-11-22T03:02:56.827Z,53.80
2022-11-22T03:18:04.376Z,47.30
2022-11-22T03:23:06.113Z,48.50
2022-11-22T03:28:08.078Z,44.40
2022-11-22T03:33:10.012Z,43.10
2022-11-22T03:38:11.834Z,40.70
2022-11-22T03:48:15.473Z,37.90
2022-11-22T03:53:17.175Z,40.10
2022-11-22T04:08:22.731Z,39.00
2022-11-22T04:13:44.483Z,41.80
2022-11-22T04:18:46.267Z,38.70
2022-11-22T04:24:07.962Z,39.80
2022-11-22T04:34:12.617Z,44.10
2022-11-22T04:39:15.605Z,44.10
2022-11-22T04:44:36.022Z,46.10
2022-11-22T04:49:37.972Z,49.20
2022-11-22T04:54:39.704Z,45.80
2022-11-22T05:04:46.332Z,44.70
2022-11-22T05:09:52.071Z,48.10
2022-11-22T05:19:55.544Z,53.20
2022-11-22T05:24:57.285Z,50.70
2022-11-22T05:35:00.790Z,51.30
2022-11-22T05:40:03.073Z,53.40
2022-11-22T05:45:05.296Z,50.30
2022-11-22T05:50:07.395Z,54.40
2022-11-22T05:55:09.486Z,54.70
2022-11-22T06:00:11.624Z,58.10
2022-11-22T06:05:16.292Z,64.00
2022-11-22T06:10:18.026Z,50.20
2022-11-22T06:20:21.844Z,77.90
2022-11-22T06:25:23.649Z,57.60
2022-11-22T06:30:25.441Z,59.20
2022-11-22T06:35:27.211Z,56.50
2022-11-22T06:40:28.952Z,63.10
2022-11-22T06:45:30.753Z,55.80
2022-11-22T06:50:32.548Z,61.20
2022-11-22T06:55:50.309Z,69.70
2022-11-22T07:00:52.997Z,67.90
2022-11-22T07:05:55.489Z,72.80
2022-11-22T07:11:04.554Z,70.50
2022-11-22T07:16:10.054Z,69.10
2022-11-22T07:21:14.458Z,69.70
2022-11-22T07:26:18.516Z,71.00
2022-11-22T07:31:20.990Z,127.40
2022-11-22T07:36:23.349Z,84.50
2022-11-22T07:41:25.256Z,66.60
2022-11-22T07:46:31.651Z,67.50
2022-11-22T07:51:33.801Z,65.00
2022-11-22T07:56:35.690Z,69.20
2022-11-22T08:01:37.648Z,59.20
2022-11-22T08:06:39.609Z,62.00
2022-11-22T08:11:41.390Z,65.60
2022-11-22T08:26:47.629Z,60.60
2022-11-22T08:31:49.872Z,68.70
2022-11-22T08:36:52.209Z,59.80
2022-11-22T08:41:55.559Z,60.00
2022-11-22T08:46:57.267Z,57.60
2022-11-22T08:57:00.693Z,94.10
2022-11-22T09:02:03.188Z,56.50
2022-11-22T09:12:26.983Z,56.80
2022-11-22T09:17:28.796Z,52.40
2022-11-22T09:22:34.021Z,47.70
2022-11-22T09:27:35.844Z,99.00
2022-11-22T09:32:37.630Z,46.90
2022-11-22T09:37:39.362Z,44.40
2022-11-22T09:48:14.695Z,38.60
2022-11-22T09:53:22.318Z,39.30
2022-11-22T09:58:30.886Z,29.40
2022-11-22T10:03:46.113Z,24.40
2022-11-22T10:09:00.149Z,23.50
2022-11-22T10:14:22.435Z,22.10
2022-11-22T10:19:35.387Z,21.70
2022-11-22T10:24:37.132Z,20.00
2022-11-22T10:29:51.500Z,19.80
2022-11-22T10:35:02.164Z,16.80
2022-11-22T10:40:49.640Z,20.90
2022-11-22T10:46:09.731Z,19.50
2022-11-22T10:51:39.805Z,17.60
2022-11-22T10:57:15.041Z,19.10
2022-11-22T11:02:25.897Z,16.60
2022-11-22T11:07:28.531Z,17.60
2022-11-22T11:13:08.905Z,20.50
2022-11-22T11:18:19.434Z,19.30
2022-11-22T11:23:21.186Z,24.10
2022-11-22T11:28:27.103Z,23.10
2022-11-22T11:33:35.032Z,22.40
2022-11-22T11:38:50.753Z,30.40
2022-11-22T11:43:54.994Z,22.60
2022-11-22T11:49:15.941Z,21.50
2022-11-22T11:54:20.657Z,22.80
2022-11-22T11:59:30.162Z,26.40
2022-11-22T12:04:36.415Z,20.50
2022-11-22T12:09:45.408Z,24.40
2022-11-22T12:15:10.930Z,23.90
2022-11-22T12:20:21.857Z,25.20
2022-11-22T12:25:33.807Z,30.40
2022-11-22T12:30:41.184Z,41.30
2022-11-22T12:35:45.002Z,35.70
2022-11-22T12:40:52.308Z,41.40
2022-11-22T12:45:58.079Z,34.70
2022-11-22T12:51:07.575Z,33.20
2022-11-22T12:56:28.410Z,22.80
2022-11-22T13:01:48.501Z,21.50
2022-11-22T13:07:01.802Z,22.00
2022-11-22T13:12:09.800Z,24.50
2022-11-22T13:17:14.962Z,26.90
2022-11-22T13:22:25.790Z,32.10
2022-11-22T13:27:37.295Z,26.10
2022-11-22T13:37:56.820Z,24.60
2022-11-22T13:43:17.884Z,21.50
2022-11-22T13:48:39.108Z,23.90
2022-11-22T13:53:46.089Z,30.30
2022-11-22T13:58:51.183Z,32.70
2022-11-22T14:03:53.532Z,34.40
2022-11-22T14:09:16.851Z,33.60
2022-11-22T14:14:54.018Z,28.20
2022-11-22T14:20:18.638Z,26.30
2022-11-22T14:25:42.733Z,30.10
2022-11-22T14:30:54.239Z,36.50
2022-11-22T14:36:08.166Z,34.40
2022-11-22T14:41:28.109Z,34.90
2022-11-22T14:46:52.904Z,35.80
2022-11-22T14:51:57.567Z,33.90
2022-11-22T14:57:07.123Z,34.70
2022-11-22T15:02:46.686Z,31.30
2022-11-22T15:09:16.272Z,36.30
2022-11-22T15:13:44.520Z,37.00
2022-11-22T15:57:55.343Z,44.30
2022-11-22T16:03:01.805Z,49.00
2022-11-22T16:08:05.675Z,43.10
2022-11-22T16:13:34.892Z,46.00
2022-11-22T16:18:36.679Z,44.10
2022-11-22T16:23:43.045Z,42.50
2022-11-22T16:28:46.548Z,45.80
2022-11-22T16:33:48.640Z,47.80
2022-11-22T16:38:50.734Z,47.80
2022-11-22T16:44:01.223Z,37.90
2022-11-22T16:49:15.575Z,39.50
2022-11-22T16:54:19.697Z,37.10
2022-11-22T16:59:21.407Z,39.20
2022-11-22T17:04:26.243Z,48.70
2022-11-22T17:09:28.327Z,39.90
2022-11-22T17:14:30.636Z,41.80
2022-11-22T17:29:55.928Z,34.40
2022-11-22T17:34:57.666Z,40.00
2022-11-22T17:39:59.501Z,47.90
2022-11-22T17:45:01.281Z,37.40
2022-11-22T17:50:03.367Z,48.80
2022-11-22T17:55:09.394Z,56.40
2022-11-22T18:00:14.192Z,61.20
2022-11-22T18:05:15.984Z,63.00
2022-11-22T18:10:17.849Z,63.50
2022-11-22T18:15:19.612Z,46.80
2022-11-22T18:20:21.396Z,42.20
2022-11-22T18:25:23.170Z,45.00
2022-11-22T18:30:24.943Z,42.80
2022-11-22T18:35:27.614Z,39.00
2022-11-22T18:40:29.434Z,39.20
2022-11-22T18:45:33.565Z,39.20
2022-11-22T18:50:36.369Z,48.10
2022-11-22T18:55:38.248Z,45.30
2022-11-22T19:00:40.092Z,50.20
2022-11-22T19:05:42.006Z,53.10
2022-11-22T19:10:44.109Z,54.90
2022-11-22T19:15:46.689Z,57.80
2022-11-22T19:20:55.129Z,59.20
2022-11-22T19:25:57.903Z,63.80
2022-11-22T19:31:02.670Z,72.50
2022-11-22T19:36:07.699Z,73.60
2022-11-22T19:41:22.507Z,70.40
2022-11-22T19:46:25.512Z,68.80
2022-11-22T19:51:29.899Z,72.40
2022-11-22T19:56:34.399Z,70.50
2022-11-22T20:02:17.697Z,63.70
2022-11-22T20:07:25.881Z,66.80
2022-11-22T20:12:27.956Z,71.00
2022-11-22T20:17:30.952Z,68.10
2022-11-22T20:22:34.375Z,71.70
2022-11-22T20:27:36.196Z,83.40
2022-11-22T20:32:41.722Z,113.10
2022-11-22T20:37:43.595Z,90.50
2022-11-22T20:42:45.477Z,91.40
2022-11-22T20:47:47.252Z,82.90
2022-11-22T20:52:49.546Z,78.70
2022-11-22T20:57:51.321Z,68.70
2022-11-22T21:02:53.063Z,77.10
2022-11-22T21:07:54.975Z,76.10
2022-11-22T21:12:57.594Z,73.90
2022-11-22T21:18:23.661Z,78.00
2022-11-22T21:23:21.812Z,62.30
2022-11-22T21:28:23.576Z,68.20
2022-11-22T21:33:25.878Z,50.00
2022-11-22T21:38:31.112Z,45.80
2022-11-22T21:43:48.797Z,42.50
2022-11-22T21:48:52.615Z,53.10
2022-11-22T21:54:01.976Z,50.10
2022-11-22T21:59:03.951Z,45.00
2022-11-22T22:04:06.130Z,42.90
2022-11-22T22:09:08.835Z,41.80
2022-11-22T22:14:14.603Z,46.00
2022-11-22T22:19:44.954Z,37.60
2022-11-22T22:24:46.728Z,44.00
2022-11-22T22:29:48.610Z,42.90
2022-11-22T22:34:50.383Z,47.00
2022-11-22T22:39:52.367Z,43.70
2022-11-22T22:44:54.251Z,51.40
2022-11-22T22:49:56.024Z,66.10
2022-11-22T22:54:57.902Z,68.20
2022-11-22T22:59:59.680Z,61.60
2022-11-22T23:05:01.455Z,49.40
2022-11-22T23:10:03.247Z,44.40
2022-11-22T23:15:06.037Z,42.40
2022-11-22T23:20:08.120Z,37.70
2022-11-22T23:25:10.616Z,36.00
2022-11-22T23:36:19.505Z,34.70
2022-11-22T23:41:23.639Z,37.10
2022-11-22T23:46:28.089Z,39.90
2022-11-22T23:51:31.385Z,38.50
2022-11-22T23:56:34.940Z,38.40
